Time;durP1;ratioP1;P1;durP2;ratioP2;P2;SDS_P1;SDS_P2;PMS_P1;PMS_P2;Temp;Humidity;BMP_temperature;BMP_pressure;BME280_temperature;BME280_humidity;BME280_pressure;Samples;Min_cycle;Max_cycle;Signal;HPM_P1;HPM_P2
2023/09/27 00:00:58;;;;;;;24.60;20.30;;;;;;;13.50;100.00;99681.52;137132;1272;22256;-82
2023/09/27 00:04:07;;;;;;;28.90;21.00;;;;;;;13.45;100.00;99679.52;137639;1272;25245;-83
2023/09/27 00:07:08;;;;;;;29.70;19.30;;;;;;;13.39;100.00;99683.64;137231;1272;23010;-81
2023/09/27 00:10:12;;;;;;;27.90;20.50;;;;;;;13.34;100.00;99686.20;137231;1265;22240;-82
2023/09/27 00:13:13;;;;;;;26.00;20.10;;;;;;;13.33;100.00;99687.77;137434;1272;22613;-82
2023/09/27 00:16:14;;;;;;;31.30;20.00;;;;;;;13.33;100.00;99687.23;137497;1272;22530;-82
2023/09/27 00:19:16;;;;;;;27.00;20.60;;;;;;;13.33;100.00;99684.96;137110;1272;22550;-82
2023/09/27 00:22:17;;;;;;;28.40;23.50;;;;;;;13.31;100.00;99683.02;137015;1272;22536;-81
2023/09/27 00:25:19;;;;;;;34.90;24.80;;;;;;;13.32;100.00;99681.45;137645;1272;22596;-82
2023/09/27 00:28:20;;;;;;;31.60;25.20;;;;;;;13.34;100.00;99682.88;137154;1272;22357;-82
2023/09/27 00:31:21;;;;;;;30.40;24.20;;;;;;;13.34;100.00;99681.83;137148;1272;22347;-81
2023/09/27 00:34:22;;;;;;;27.90;21.70;;;;;;;13.31;100.00;99681.27;137774;1272;22333;-81
2023/09/27 00:37:24;;;;;;;24.60;20.00;;;;;;;13.25;100.00;99680.99;137211;1272;22241;-82
2023/09/27 00:40:25;;;;;;;30.70;20.40;;;;;;;13.19;100.00;99677.59;137231;1272;22546;-81
2023/09/27 00:43:26;;;;;;;27.70;19.30;;;;;;;13.18;100.00;99678.10;137441;1272;22555;-82
2023/09/27 00:46:27;;;;;;;29.50;19.80;;;;;;;13.18;100.00;99677.92;137493;1272;22397;-83
2023/09/27 00:49:28;;;;;;;22.30;18.80;;;;;;;13.18;100.00;99680.53;137182;1272;22717;-82
2023/09/27 00:52:30;;;;;;;28.70;18.30;;;;;;;13.14;100.00;99680.80;137261;1272;22551;-81
2023/09/27 00:55:31;;;;;;;26.00;17.10;;;;;;;13.08;100.00;99675.98;137739;1272;22190;-82
2023/09/27 00:58:32;;;;;;;49.90;18.50;;;;;;;13.01;100.00;99676.77;137414;1272;22266;-82
2023/09/27 01:01:36;;;;;;;25.00;18.50;;;;;;;13.01;100.00;99679.02;137119;1272;22582;-81
2023/09/27 01:04:37;;;;;;;22.50;18.80;;;;;;;13.02;100.00;99679.39;137679;1262;22812;-81
2023/09/27 01:07:40;;;;;;;32.70;19.10;;;;;;;13.03;100.00;99678.20;137291;1272;22647;-83
2023/09/27 01:10:41;;;;;;;28.10;18.60;;;;;;;13.05;100.00;99675.59;137072;1272;23018;-82
2023/09/27 01:13:42;;;;;;;24.00;17.90;;;;;;;13.01;100.00;99683.22;137489;1272;22534;-82
2023/09/27 01:16:43;;;;;;;27.00;19.40;;;;;;;12.95;100.00;99675.59;137261;1272;22407;-83
2023/09/27 01:19:45;;;;;;;28.00;19.60;;;;;;;12.90;100.00;99677.44;137252;1272;22890;-82
2023/09/27 01:22:46;;;;;;;26.90;20.00;;;;;;;12.87;100.00;99677.55;137278;1272;22598;-83
2023/09/27 01:25:47;;;;;;;20.90;18.10;;;;;;;12.83;100.00;99676.27;137612;1272;22389;-82
2023/09/27 01:28:49;;;;;;;42.10;19.90;;;;;;;12.76;100.00;99679.31;137214;1272;22730;-81
2023/09/27 01:31:50;;;;;;;24.00;17.90;;;;;;;12.69;100.00;99675.88;137226;1272;22542;-81
2023/09/27 01:34:51;;;;;;;22.20;18.40;;;;;;;12.64;100.00;99670.38;137731;1272;22137;-81
2023/09/27 01:37:52;;;;;;;32.40;21.40;;;;;;;12.58;100.00;99668.52;137133;1272;22564;-81
2023/09/27 01:40:53;;;;;;;28.50;19.70;;;;;;;12.57;100.00;99665.89;137041;1272;22994;-81
2023/09/27 01:43:54;;;;;;;29.20;21.40;;;;;;;12.59;100.00;99666.98;137619;1272;25275;-81
2023/09/27 01:46:56;;;;;;;36.40;21.10;;;;;;;12.63;100.00;99670.54;137119;1272;22680;-82
2023/09/27 01:49:57;;;;;;;29.10;22.90;;;;;;;12.66;100.00;99674.95;137041;1272;22132;-82
2023/09/27 01:52:58;;;;;;;33.30;22.60;;;;;;;12.72;100.00;99680.64;137307;1266;22562;-83
2023/09/27 01:55:59;;;;;;;30.80;23.00;;;;;;;12.74;100.00;99685.73;137399;1272;22199;-82
2023/09/27 01:59:02;;;;;;;30.40;21.30;;;;;;;12.74;100.00;99678.41;137224;1266;22176;-82
2023/09/27 02:02:03;;;;;;;34.80;21.50;;;;;;;12.69;100.00;99679.02;137134;1272;22541;-83
2023/09/27 02:05:04;;;;;;;34.20;21.40;;;;;;;12.59;100.00;99683.91;137745;1272;22227;-82
2023/09/27 02:08:07;;;;;;;24.80;20.40;;;;;;;12.51;100.00;99685.17;137079;1272;22560;-82
2023/09/27 02:11:08;;;;;;;38.80;20.20;;;;;;;12.51;100.00;99681.15;137012;1272;22549;-81
2023/09/27 02:14:09;;;;;;;28.50;20.10;;;;;;;12.47;100.00;99687.36;137803;1272;22407;-82
2023/09/27 02:17:10;;;;;;;189.30;29.90;;;;;;;12.39;100.00;99687.23;136968;1272;22312;-83
2023/09/27 02:20:11;;;;;;;42.80;22.70;;;;;;;12.33;100.00;99688.69;137318;1272;22310;-83
2023/09/27 02:23:12;;;;;;;197.60;31.20;;;;;;;12.29;100.00;99686.52;137554;1272;22163;-82
2023/09/27 02:26:14;;;;;;;43.60;22.10;;;;;;;12.27;100.00;99681.25;137213;1272;22507;-82
2023/09/27 02:29:15;;;;;;;44.50;22.50;;;;;;;12.24;100.00;99682.75;137520;1272;22308;-82
2023/09/27 02:32:17;;;;;;;24.90;18.80;;;;;;;12.23;100.00;99682.39;137488;1272;22540;-82
2023/09/27 02:35:20;;;;;;;53.70;21.00;;;;;;;12.20;100.00;99678.67;137670;1272;22408;-83
2023/09/27 02:38:22;;;;;;;25.90;18.90;;;;;;;12.15;100.00;99680.33;137492;1272;22280;-83
2023/09/27 02:41:23;;;;;;;27.10;18.50;;;;;;;12.10;100.00;99675.67;137220;1272;22555;-83
2023/09/27 02:44:25;;;;;;;25.20;18.00;;;;;;;12.08;100.00;99675.10;137662;1272;22286;-84
2023/09/27 02:47:26;;;;;;;23.60;19.50;;;;;;;12.07;100.00;99672.65;137297;1272;22250;-83
2023/09/27 02:50:27;;;;;;;84.20;23.10;;;;;;;12.09;100.00;99672.33;137231;1272;22307;-82
2023/09/27 02:53:29;;;;;;;46.50;22.70;;;;;;;12.15;100.00;99672.98;137723;1272;22196;-86
2023/09/27 02:56:37;;;;;;;32.80;23.60;;;;;;;12.25;100.00;99669.88;137425;1272;22739;-82
2023/09/27 02:59:38;;;;;;;31.80;25.20;;;;;;;12.35;100.00;99671.11;137150;1272;22242;-83
2023/09/27 03:02:39;;;;;;;32.00;22.90;;;;;;;12.45;100.00;99671.45;137663;1272;22111;-83
2023/09/27 03:05:41;;;;;;;35.20;25.30;;;;;;;12.48;100.00;99667.66;137627;1272;22363;-83
2023/09/27 03:08:43;;;;;;;39.10;26.90;;;;;;;12.54;100.00;99668.81;137255;1272;22250;-84
2023/09/27 03:11:45;;;;;;;39.30;27.10;;;;;;;12.62;100.00;99674.01;137239;1272;22530;-84
2023/09/27 03:14:46;;;;;;;34.70;27.80;;;;;;;12.70;100.00;99677.46;137691;1272;22217;-84
2023/09/27 03:17:48;;;;;;;59.30;29.70;;;;;;;12.74;100.00;99676.48;137258;1272;22550;-84
2023/09/27 03:20:51;;;;;;;542.20;54.20;;;;;;;12.79;100.00;99677.60;137110;1272;22547;-84
2023/09/27 03:23:53;;;;;;;57.10;30.00;;;;;;;12.82;100.00;99675.37;137688;1272;22239;-82
2023/09/27 03:26:54;;;;;;;41.10;27.50;;;;;;;12.84;100.00;99676.98;137251;1272;22398;-81
2023/09/27 03:29:55;;;;;;;39.60;27.90;;;;;;;12.85;100.00;99674.03;137313;1272;22211;-82
2023/09/27 03:32:56;;;;;;;39.20;25.60;;;;;;;12.84;100.00;99675.77;137698;1259;22536;-81
2023/09/27 03:35:57;;;;;;;40.60;26.60;;;;;;;12.78;100.00;99677.77;137159;1272;22743;-82
2023/09/27 03:38:58;;;;;;;140.20;32.70;;;;;;;12.78;100.00;99678.46;137742;1272;22262;-82
2023/09/27 03:41:59;;;;;;;31.90;23.80;;;;;;;12.78;100.00;99677.77;137507;1272;22477;-81
2023/09/27 03:45:01;;;;;;;42.60;25.20;;;;;;;12.73;100.00;99678.39;137439;1272;22245;-81
2023/09/27 03:48:02;;;;;;;48.20;23.70;;;;;;;12.71;100.00;99677.13;137745;1272;22294;-81
2023/09/27 03:51:03;;;;;;;37.10;25.10;;;;;;;13.39;100.00;99672.23;137742;1272;22098;-81
2023/09/27 03:54:04;;;;;;;29.50;22.20;;;;;;;14.67;100.00;99668.51;137737;1272;22401;-80
2023/09/27 03:57:06;;;;;;;240.60;33.00;;;;;;;15.32;100.00;99664.44;137315;1272;22410;-81
2023/09/27 04:00:09;;;;;;;225.10;32.00;;;;;;;15.83;100.00;99663.52;137687;1272;22208;-81
2023/09/27 04:03:10;;;;;;;50.20;24.40;;;;;;;16.24;100.00;99668.38;137753;1272;22724;-80
2023/09/27 04:06:11;;;;;;;49.90;21.90;;;;;;;16.53;100.00;99666.16;137777;1272;22070;-81
2023/09/27 04:09:12;;;;;;;39.20;19.60;;;;;;;16.75;100.00;99672.36;137735;1272;22561;-80
2023/09/27 04:12:13;;;;;;;25.50;18.20;;;;;;;17.00;100.00;99673.95;137683;1272;22602;-81
2023/09/27 04:15:14;;;;;;;132.40;25.90;;;;;;;17.19;100.00;99675.84;137750;1272;22303;-82
2023/09/27 04:18:15;;;;;;;59.80;22.50;;;;;;;17.36;100.00;99675.66;137515;1272;22244;-82
2023/09/27 04:21:16;;;;;;;46.20;23.80;;;;;;;17.40;100.00;99678.48;137694;1272;22444;-81
2023/09/27 04:24:18;;;;;;;342.70;35.50;;;;;;;17.46;100.00;99687.27;137674;1272;22209;-82
2023/09/27 04:27:19;;;;;;;52.40;20.20;;;;;;;17.50;100.00;99684.61;137721;1272;22337;-82
2023/09/27 04:30:22;;;;;;;31.70;18.40;;;;;;;17.63;100.00;99682.11;137685;1272;22714;-81
2023/09/27 04:33:24;;;;;;;40.20;19.90;;;;;;;17.71;100.00;99682.98;137729;1272;22746;-80
2023/09/27 04:36:25;;;;;;;41.30;20.80;;;;;;;17.79;100.00;99684.54;137764;1272;22260;-80
2023/09/27 04:39:30;;;;;;;326.80;35.50;;;;;;;17.74;100.00;99689.66;137173;1272;22534;-81
2023/09/27 04:42:31;;;;;;;39.90;21.00;;;;;;;17.68;100.00;99689.67;137701;1272;22223;-81
2023/09/27 04:45:33;;;;;;;33.30;20.20;;;;;;;17.89;100.00;99691.02;137680;1272;22142;-81
2023/09/27 04:48:35;;;;;;;55.60;19.90;;;;;;;18.06;100.00;99696.05;137704;1272;22298;-81
2023/09/27 04:51:38;;;;;;;41.70;20.80;;;;;;;18.17;100.00;99697.23;137706;1271;22089;-80
2023/09/27 04:54:39;;;;;;;50.90;20.40;;;;;;;18.08;100.00;99700.44;137700;1272;22206;-80
2023/09/27 04:57:40;;;;;;;54.70;21.60;;;;;;;17.90;100.00;99704.40;137675;1272;22728;-79
2023/09/27 05:00:42;;;;;;;89.90;62.90;;;;;;;17.66;100.00;99704.65;137685;1272;22128;-80
2023/09/27 05:03:43;;;;;;;47.60;22.40;;;;;;;17.59;100.00;99702.17;137677;1272;22592;-80
2023/09/27 05:06:44;;;;;;;31.60;20.30;;;;;;;17.74;100.00;99702.34;137710;1260;22221;-80
2023/09/27 05:09:45;;;;;;;32.80;21.70;;;;;;;17.96;100.00;99707.89;137693;1268;22104;-80
2023/09/27 05:12:46;;;;;;;55.80;21.90;;;;;;;18.15;100.00;99710.09;137694;1272;22283;-80
2023/09/27 05:15:48;;;;;;;61.40;22.10;;;;;;;18.16;100.00;99710.97;137651;1272;22230;-81
2023/09/27 05:18:49;;;;;;;50.90;22.00;;;;;;;18.34;100.00;99715.30;137660;1272;22267;-81
2023/09/27 05:21:50;;;;;;;46.10;22.10;;;;;;;18.52;100.00;99712.56;137672;1272;22815;-81
2023/09/27 05:24:51;;;;;;;44.70;20.80;;;;;;;18.43;100.00;99714.02;137695;1272;22377;-80
2023/09/27 05:27:56;;;;;;;;;;;;;;;17.68;100.00;99719.06;137715;1272;22298;-80
2023/09/27 05:30:58;;;;;;;23.90;19.40;;;;;;;17.02;100.00;99722.64;137721;1272;22810;-80
2023/09/27 05:33:59;;;;;;;27.80;19.40;;;;;;;16.58;100.00;99721.70;137694;1272;22253;-79
2023/09/27 05:37:00;;;;;;;35.60;20.30;;;;;;;16.24;100.00;99722.12;137665;1272;22186;-80
2023/09/27 05:40:04;;;;;;;106.70;26.40;;;;;;;16.31;100.00;99720.91;137527;1272;22631;-85
2023/09/27 05:43:05;;;;;;;49.80;22.60;;;;;;;17.09;100.00;99719.30;137655;1272;22249;-83
2023/09/27 05:46:07;;;;;;;55.20;22.20;;;;;;;17.46;100.00;99717.70;137699;1272;22221;-77
2023/09/27 05:49:09;;;;;;;314.10;253.00;;;;;;;17.81;100.00;99718.34;137689;1272;22150;-80
2023/09/27 05:52:12;;;;;;;61.20;28.70;;;;;;;18.19;100.00;99721.89;137639;1272;22084;-80
2023/09/27 05:55:15;;;;;;;912.10;186.20;;;;;;;18.50;100.00;99719.44;137633;1272;22614;-79
2023/09/27 05:58:16;;;;;;;57.60;25.60;;;;;;;18.76;100.00;99718.77;137664;1272;22652;-80
2023/09/27 06:01:19;;;;;;;33.00;22.30;;;;;;;19.00;100.00;99714.35;137565;1272;22365;-80
2023/09/27 06:04:20;;;;;;;39.20;22.40;;;;;;;19.22;100.00;99714.36;137675;1272;22159;-80
2023/09/27 06:07:22;;;;;;;31.50;20.20;;;;;;;19.39;100.00;99721.23;137652;1272;22208;-80
2023/09/27 06:10:23;;;;;;;55.70;37.50;;;;;;;19.63;100.00;99724.21;137680;1272;22252;-81
2023/09/27 06:13:25;;;;;;;32.40;19.90;;;;;;;19.76;100.00;99728.48;137706;1269;22317;-80
2023/09/27 06:16:26;;;;;;;30.20;19.70;;;;;;;19.89;100.00;99733.81;137689;1272;22211;-80
2023/09/27 06:19:27;;;;;;;36.60;23.90;;;;;;;19.98;100.00;99732.14;137687;1272;22362;-80
2023/09/27 06:22:29;;;;;;;31.70;20.90;;;;;;;20.17;100.00;99732.09;137734;1272;22287;-80
2023/09/27 06:25:30;;;;;;;45.60;20.40;;;;;;;20.34;100.00;99734.34;136783;1272;22202;-80
2023/09/27 06:28:31;;;;;;;36.60;19.00;;;;;;;20.47;100.00;99736.48;137318;1272;22751;-80
2023/09/27 06:31:34;;;;;;;26.80;19.10;;;;;;;20.60;100.00;99735.41;137546;1272;22285;-79
2023/09/27 06:34:35;;;;;;;54.60;21.90;;;;;;;20.71;100.00;99738.42;137686;1271;22480;-80
2023/09/27 06:37:36;;;;;;;45.00;24.70;;;;;;;20.87;100.00;99737.31;137721;1272;22244;-79
2023/09/27 06:40:38;;;;;;;46.70;26.30;;;;;;;20.94;100.00;99741.99;137638;1272;22536;-80
2023/09/27 06:43:39;;;;;;;44.00;20.50;;;;;;;21.03;100.00;99740.42;136934;1272;22558;-80
2023/09/27 06:46:40;;;;;;;30.00;19.20;;;;;;;21.12;100.00;99743.48;137238;1272;22256;-80
2023/09/27 06:49:45;;;;;;;35.30;19.20;;;;;;;21.25;100.00;99739.02;137641;1269;22894;-81
2023/09/27 06:52:46;;;;;;;43.70;19.10;;;;;;;21.40;100.00;99747.80;137033;1272;22419;-81
2023/09/27 06:55:49;;;;;;;45.30;19.60;;;;;;;21.46;100.00;99746.09;137369;1272;22129;-80
2023/09/27 06:58:51;;;;;;;50.10;20.00;;;;;;;21.48;100.00;99749.07;137416;1272;21939;-80
2023/09/27 07:01:52;;;;;;;30.20;19.10;;;;;;;21.65;100.00;99749.30;136869;1272;22202;-81
2023/09/27 07:04:54;;;;;;;29.70;19.70;;;;;;;21.71;100.00;99750.80;136888;1272;22380;-79
2023/09/27 07:07:55;;;;;;;67.50;21.60;;;;;;;21.83;100.00;99752.86;137783;1272;22299;-77
2023/09/27 07:10:56;;;;;;;47.80;21.10;;;;;;;22.01;100.00;99755.70;137807;1272;22268;-78
2023/09/27 07:13:57;;;;;;;72.70;32.30;;;;;;;22.14;100.00;99755.63;137791;1272;22595;-78
2023/09/27 07:16:58;;;;;;;118.00;61.60;;;;;;;22.27;100.00;99759.63;137803;1272;22204;-78
2023/09/27 07:19:59;;;;;;;33.30;21.70;;;;;;;22.40;100.00;99761.30;137699;1272;22540;-78
2023/09/27 07:23:03;;;;;;;34.70;20.60;;;;;;;22.43;100.00;99760.86;137737;1272;22283;-78
2023/09/27 07:26:05;;;;;;;44.30;21.30;;;;;;;22.57;100.00;99763.96;137720;1272;22151;-78
2023/09/27 07:29:06;;;;;;;62.60;26.80;;;;;;;22.69;100.00;99762.45;137725;1272;22133;-77
2023/09/27 07:32:08;;;;;;;65.10;26.00;;;;;;;22.80;100.00;99767.02;137715;1272;22216;-78
2023/09/27 07:35:09;;;;;;;55.10;22.30;;;;;;;22.78;100.00;99766.33;137751;1258;22682;-78
2023/09/27 07:38:10;;;;;;;59.00;21.30;;;;;;;22.89;100.00;99768.59;137706;1272;22774;-78
2023/09/27 07:41:12;;;;;;;62.50;21.90;;;;;;;22.82;100.00;99771.58;137674;1272;23186;-79
2023/09/27 07:44:13;;;;;;;29.30;19.50;;;;;;;22.71;100.00;99776.23;137727;1258;22263;-79
2023/09/27 07:47:14;;;;;;;31.20;18.10;;;;;;;22.59;100.00;99772.09;137715;1272;22210;-80
2023/09/27 07:50:15;;;;;;;56.60;20.00;;;;;;;22.66;100.00;99772.45;137677;1272;22193;-80
2023/09/27 07:53:16;;;;;;;36.10;19.60;;;;;;;22.76;100.00;99769.73;137750;1272;22217;-81
2023/09/27 07:56:18;;;;;;;31.40;19.40;;;;;;;22.86;100.00;99768.66;137790;1272;22385;-81
2023/09/27 07:59:19;;;;;;;25.20;18.40;;;;;;;22.75;100.00;99771.38;137761;1272;22155;-81
2023/09/27 08:02:21;;;;;;;42.50;19.30;;;;;;;22.68;100.00;99777.91;137724;1272;22213;-80
2023/09/27 08:05:22;;;;;;;77.50;20.10;;;;;;;22.61;100.00;99777.54;137755;1272;22344;-81
2023/09/27 08:08:23;;;;;;;30.50;17.90;;;;;;;22.60;100.00;99779.33;137753;1272;22617;-80
2023/09/27 08:11:24;;;;;;;23.70;17.40;;;;;;;22.64;100.00;99777.48;137742;1272;22302;-81
2023/09/27 08:14:26;;;;;;;18.40;16.10;;;;;;;22.71;100.00;99781.94;137763;1272;22838;-81
2023/09/27 08:17:27;;;;;;;25.60;16.70;;;;;;;22.73;100.00;99783.30;137750;1272;22260;-81
2023/09/27 08:20:28;;;;;;;28.50;17.10;;;;;;;22.77;100.00;99779.13;137701;1272;22304;-81
2023/09/27 08:23:29;;;;;;;26.40;16.80;;;;;;;22.79;100.00;99782.10;137694;1272;22242;-81
2023/09/27 08:26:32;;;;;;;33.40;17.20;;;;;;;22.85;100.00;99778.80;137705;1272;22187;-80
2023/09/27 08:29:34;;;;;;;43.10;18.00;;;;;;;22.91;100.00;99780.80;137696;1272;22235;-82
2023/09/27 08:32:38;;;;;;;112.10;22.30;;;;;;;23.02;100.00;99783.55;137696;1272;22181;-80
2023/09/27 08:35:39;;;;;;;21.20;15.60;;;;;;;23.15;100.00;99785.00;137700;1272;22215;-80
2023/09/27 08:38:40;;;;;;;30.80;16.70;;;;;;;23.20;100.00;99789.84;137725;1272;22806;-80
2023/09/27 08:41:41;;;;;;;35.50;18.60;;;;;;;23.29;100.00;99791.21;137691;1272;22667;-81
2023/09/27 08:44:43;;;;;;;75.40;19.00;;;;;;;23.40;100.00;99789.71;137756;1272;22442;-81
2023/09/27 08:47:44;;;;;;;25.10;16.30;;;;;;;23.49;100.00;99787.73;137739;1270;22062;-80
2023/09/27 08:50:45;;;;;;;21.20;15.70;;;;;;;23.55;100.00;99788.33;137715;1272;22264;-80
2023/09/27 08:53:46;;;;;;;32.40;17.10;;;;;;;23.60;100.00;99790.86;137698;1272;22872;-81
2023/09/27 08:56:47;;;;;;;20.90;15.50;;;;;;;23.75;100.00;99787.61;137780;1272;22165;-80
2023/09/27 08:59:48;;;;;;;15.70;13.90;;;;;;;23.86;100.00;99791.23;137697;1272;22583;-80
2023/09/27 09:02:50;;;;;;;20.70;14.40;;;;;;;23.91;100.00;99790.55;137739;1272;22724;-80
2023/09/27 09:05:51;;;;;;;34.40;16.70;;;;;;;24.01;100.00;99791.16;137671;1272;22173;-80
2023/09/27 09:08:53;;;;;;;33.70;16.70;;;;;;;24.12;100.00;99787.98;137718;1272;22826;-81
2023/09/27 09:11:56;;;;;;;24.30;15.80;;;;;;;24.19;100.00;99789.05;137753;1272;22255;-80
2023/09/27 09:14:58;;;;;;;23.80;16.50;;;;;;;24.33;100.00;99788.54;137756;1272;22922;-80
2023/09/27 09:17:59;;;;;;;23.20;17.10;;;;;;;24.42;100.00;99785.96;137749;1272;22527;-79
2023/09/27 09:21:08;;;;;;;25.80;16.10;;;;;;;24.64;100.00;99782.07;137694;1272;22230;-80
2023/09/27 09:24:09;;;;;;;38.90;16.90;;;;;;;24.85;100.00;99780.19;137688;1272;22382;-80
2023/09/27 09:27:10;;;;;;;23.10;16.20;;;;;;;24.97;100.00;99778.58;137718;1272;22087;-81
2023/09/27 09:30:11;;;;;;;59.20;17.10;;;;;;;24.99;100.00;99780.49;137730;1272;22315;-80
2023/09/27 09:33:12;;;;;;;40.50;16.30;;;;;;;25.11;100.00;99780.10;137736;1272;22292;-80
2023/09/27 09:36:13;;;;;;;21.50;14.40;;;;;;;25.16;100.00;99779.98;137762;1272;22565;-80
2023/09/27 09:39:16;;;;;;;19.80;14.20;;;;;;;25.19;100.00;99783.41;137725;1272;22261;-80
2023/09/27 09:42:17;;;;;;;26.80;14.70;;;;;;;25.24;100.00;99783.09;137695;1272;22213;-80
2023/09/27 09:45:19;;;;;;;73.10;16.60;;;;;;;25.30;100.00;99781.09;137605;1272;194725;-83
2023/09/27 09:48:23;;;;;;;40.70;15.80;;;;;;;25.37;100.00;99786.21;137730;1272;22182;-79
2023/09/27 09:51:24;;;;;;;;;;;;;;;25.43;100.00;99779.95;137741;1272;22362;-80
2023/09/27 09:54:26;;;;;;;19.50;14.20;;;;;;;25.52;100.00;99783.93;137045;1272;22331;-79
2023/09/27 09:57:27;;;;;;;25.60;13.70;;;;;;;25.57;100.00;99788.91;137664;1272;22389;-80
2023/09/27 10:00:30;;;;;;;17.90;12.00;;;;;;;25.67;100.00;99789.66;137451;1272;22359;-80
2023/09/27 10:03:31;;;;;;;18.70;12.50;;;;;;;25.72;100.00;99789.31;137739;1272;22896;-81
2023/09/27 10:06:33;;;;;;;21.00;12.50;;;;;;;25.65;65.28;99786.15;137702;1272;22574;-80
2023/09/27 10:09:34;;;;;;;20.80;12.70;;;;;;;25.58;65.32;99785.13;137734;1272;22326;-79
2023/09/27 10:12:35;;;;;;;50.10;13.40;;;;;;;25.71;64.06;99788.82;137702;1272;22348;-80
2023/09/27 10:15:37;;;;;;;22.90;10.90;;;;;;;25.86;63.20;99787.40;137765;1272;22881;-81
2023/09/27 10:18:38;;;;;;;70.10;14.70;;;;;;;25.95;62.54;99785.09;137764;1272;22085;-80
2023/09/27 10:21:39;;;;;;;18.40;10.80;;;;;;;26.08;62.70;99783.42;137761;1272;22291;-80
2023/09/27 10:24:40;;;;;;;26.30;11.10;;;;;;;26.23;62.13;99777.69;137740;1272;22376;-82
2023/09/27 10:27:41;;;;;;;36.50;12.50;;;;;;;26.30;61.69;99777.77;137728;1272;22352;-79
2023/09/27 10:30:44;;;;;;;56.70;13.50;;;;;;;26.38;61.64;99776.10;137706;1272;22289;-80
2023/09/27 10:33:45;;;;;;;17.50;11.20;;;;;;;26.46;60.90;99777.92;137689;1272;22255;-79
2023/09/27 10:36:46;;;;;;;23.10;12.10;;;;;;;26.42;60.36;99771.65;137689;1272;22305;-80
2023/09/27 10:39:47;;;;;;;14.70;9.60;;;;;;;26.39;60.35;99770.34;137707;1272;22336;-80
2023/09/27 10:42:48;;;;;;;38.20;12.00;;;;;;;26.45;59.86;99769.74;137747;1272;22710;-80
2023/09/27 10:45:49;;;;;;;14.50;9.80;;;;;;;26.52;59.01;99770.19;137686;1272;22102;-80
2023/09/27 10:48:50;;;;;;;46.00;26.80;;;;;;;26.49;59.10;99765.83;137726;1272;22185;-81
2023/09/27 10:51:52;;;;;;;35.90;11.00;;;;;;;26.58;59.25;99767.80;137568;1272;22236;-81
2023/09/27 10:54:53;;;;;;;22.80;10.00;;;;;;;26.65;58.47;99767.71;137753;1272;22076;-80
2023/09/27 10:57:54;;;;;;;23.40;11.00;;;;;;;26.75;57.64;99768.92;137674;1260;22190;-80
2023/09/27 11:00:56;;;;;;;12.50;8.60;;;;;;;26.81;56.80;99762.98;137719;1272;22186;-78
2023/09/27 11:03:57;;;;;;;18.30;8.70;;;;;;;26.67;54.88;99763.36;137775;1272;22222;-80
2023/09/27 11:07:01;;;;;;;13.80;9.50;;;;;;;26.64;55.01;99762.22;137772;1272;22200;-80
2023/09/27 11:10:02;;;;;;;17.00;8.50;;;;;;;26.71;54.09;99754.45;137717;1272;22216;-79
2023/09/27 11:13:03;;;;;;;12.80;8.00;;;;;;;26.73;55.05;99748.67;137796;1272;22318;-79
2023/09/27 11:16:04;;;;;;;15.80;8.10;;;;;;;26.82;53.73;99748.27;137786;1272;22200;-79
2023/09/27 11:19:06;;;;;;;21.30;7.40;;;;;;;26.85;53.61;99748.19;137372;1272;22945;-79
2023/09/27 11:22:07;;;;;;;17.60;7.00;;;;;;;26.91;52.31;99742.95;137784;1272;22207;-80
2023/09/27 11:25:09;;;;;;;10.10;6.30;;;;;;;27.04;51.10;99745.87;137717;1272;22651;-80
2023/09/27 11:28:10;;;;;;;34.00;8.80;;;;;;;27.03;50.69;99743.23;137782;1272;22313;-79
2023/09/27 11:31:11;;;;;;;13.20;6.90;;;;;;;26.88;49.10;99744.33;137782;1272;22203;-80
2023/09/27 11:34:12;;;;;;;361.30;34.90;;;;;;;26.69;49.16;99740.98;137811;1272;22090;-81
2023/09/27 11:37:13;;;;;;;80.20;13.90;;;;;;;26.76;48.82;99738.90;137696;1269;22280;-81
2023/09/27 11:40:14;;;;;;;18.40;7.50;;;;;;;26.89;49.07;99737.33;137542;1268;22214;-80
2023/09/27 11:43:17;;;;;;;12.00;6.40;;;;;;;26.96;48.42;99731.86;137718;1270;22237;-81
2023/09/27 11:46:18;;;;;;;10.40;6.20;;;;;;;26.97;48.50;99730.02;137708;1272;22958;-80
2023/09/27 11:49:19;;;;;;;10.90;7.30;;;;;;;26.99;48.38;99723.56;137718;1272;22213;-80
2023/09/27 11:52:20;;;;;;;17.60;7.80;;;;;;;27.02;49.00;99726.10;137683;1272;22155;-81
2023/09/27 11:55:22;;;;;;;14.00;6.80;;;;;;;27.01;50.19;99720.60;137668;1272;22195;-80
2023/09/27 11:58:23;;;;;;;11.30;7.60;;;;;;;27.05;51.18;99720.83;137734;1272;22325;-81
2023/09/27 12:01:24;;;;;;;14.80;7.60;;;;;;;27.11;51.46;99718.56;137618;1272;22219;-79
2023/09/27 12:04:28;;;;;;;10.80;7.30;;;;;;;27.16;50.20;99712.28;137716;1272;22320;-80
2023/09/27 12:07:29;;;;;;;17.50;8.10;;;;;;;27.13;50.11;99707.79;137703;1272;23177;-80
2023/09/27 12:10:30;;;;;;;13.70;6.50;;;;;;;27.12;49.87;99704.44;137659;1272;22271;-82
2023/09/27 12:13:32;;;;;;;10.20;7.50;;;;;;;27.17;49.25;99702.27;137699;1272;22673;-83
2023/09/27 12:16:33;;;;;;;14.30;6.50;;;;;;;27.15;49.46;99699.84;137712;1257;22240;-83
2023/09/27 12:19:34;;;;;;;10.30;6.30;;;;;;;27.24;48.79;99703.88;137660;1272;22570;-82
2023/09/27 12:22:38;;;;;;;10.20;6.30;;;;;;;27.25;47.47;99699.20;137686;1272;22566;-83
2023/09/27 12:25:39;;;;;;;25.40;7.80;;;;;;;27.17;47.62;99697.05;137541;1272;22476;-81
2023/09/27 12:28:43;;;;;;;28.30;8.50;;;;;;;27.19;47.46;99695.89;137626;1272;22229;-82
2023/09/27 12:31:44;;;;;;;15.10;6.80;;;;;;;27.22;47.28;99690.40;137627;1272;22207;-81
2023/09/27 12:34:45;;;;;;;14.00;6.50;;;;;;;27.22;47.32;99688.80;137650;1272;22277;-81
2023/09/27 12:37:46;;;;;;;13.70;10.30;;;;;;;27.17;47.55;99684.20;137654;1272;22236;-80
2023/09/27 12:40:47;;;;;;;25.70;8.30;;;;;;;27.19;47.69;99680.70;137711;1272;22196;-81
2023/09/27 12:43:48;;;;;;;12.60;6.70;;;;;;;27.24;47.10;99677.27;137719;1260;22113;-82
2023/09/27 12:46:49;;;;;;;17.00;6.70;;;;;;;27.26;47.75;99678.09;137730;1272;22666;-80
2023/09/27 12:49:50;;;;;;;11.70;6.40;;;;;;;27.26;48.08;99675.06;137688;1272;22936;-83
2023/09/27 12:52:52;;;;;;;32.50;7.80;;;;;;;27.22;48.05;99670.23;137731;1272;22362;-83
2023/09/27 12:55:53;;;;;;;15.00;6.80;;;;;;;27.19;48.02;99670.69;137706;1269;22238;-82
2023/09/27 12:58:54;;;;;;;10.60;6.00;;;;;;;27.19;47.91;99665.32;137736;1272;22382;-81
2023/09/27 13:01:56;;;;;;;575.70;53.40;;;;;;;27.15;48.00;99659.45;137756;1272;22294;-80
2023/09/27 13:04:57;;;;;;;15.40;7.30;;;;;;;27.25;48.17;99657.77;137722;1272;22165;-81
2023/09/27 13:07:58;;;;;;;16.80;8.00;;;;;;;27.32;48.52;99656.77;137761;1263;22589;-81
2023/09/27 13:11:00;;;;;;;24.60;7.60;;;;;;;27.32;48.57;99655.48;137771;1269;22105;-82
2023/09/27 13:14:01;;;;;;;15.20;7.20;;;;;;;27.28;48.34;99653.18;137715;1272;22387;-83
2023/09/27 13:17:03;;;;;;;15.50;7.60;;;;;;;27.18;48.47;99649.69;137396;1272;22576;-81
2023/09/27 13:20:06;;;;;;;10.90;6.70;;;;;;;27.16;48.17;99647.08;137721;1260;22239;-81
2023/09/27 13:23:07;;;;;;;15.00;6.80;;;;;;;27.14;48.39;99647.14;137707;1272;22357;-82
2023/09/27 13:26:09;;;;;;;15.40;7.70;;;;;;;27.15;47.91;99643.56;137386;1272;22393;-81
2023/09/27 13:29:10;;;;;;;40.80;9.30;;;;;;;27.18;47.29;99641.42;137719;1272;22718;-82
2023/09/27 13:32:12;;;;;;;10.30;6.20;;;;;;;27.19;48.37;99641.94;137677;1272;22857;-81
2023/09/27 13:35:14;;;;;;;8.60;6.10;;;;;;;27.11;48.07;99637.84;137384;1272;22354;-83
2023/09/27 13:38:15;;;;;;;63.00;10.70;;;;;;;27.01;48.39;99633.62;137303;1269;22390;-83